Forest City, Pennsylvania
Current Conditions -  °F | °C
As of 5:54 AM on Wednesday 26 Nov 2014 (Local Time) from KAVP Reporting Station
Overcast Overcast  
Wind Chill: 33°   Ceiling: 11000
Heat Index: 38°   Visibility: 10mi
Dew Point: 28°   Wind: 6mph
Humidity: 68%   Direction: 60°ENE
Pressure: 30.15"   Gusts: NA
Location:  41.65°N, 75.47°W
Report Text: KAVP 261054Z AUTO 06005KT 10SM OVC110 03/M02 A3015 RMK AO2 SLP212 T00331022
Loading
Personal Weather Stations






























Interactive Weather Map New forecast layout! Learn more

10-Day Weather Forecast

Advertisements
Track Severe Weather on mobile